sensor_id;sensor_type;location;lat;lon;timestamp;P1;durP1;ratioP1;P2;durP2;ratioP2
64799;SDS011;51233;51.982;4.594;2023-04-21T00:02:57;5.82;;;5.30;;
64799;SDS011;51233;51.982;4.594;2023-04-21T00:05:57;4.95;;;4.32;;
64799;SDS011;51233;51.982;4.594;2023-04-21T00:08:57;4.38;;;4.07;;
64799;SDS011;51233;51.982;4.594;2023-04-21T00:11:58;5.50;;;5.00;;
64799;SDS011;51233;51.982;4.594;2023-04-21T00:14:58;7.30;;;6.23;;
64799;SDS011;51233;51.982;4.594;2023-04-21T00:17:58;5.33;;;4.83;;
64799;SDS011;51233;51.982;4.594;2023-04-21T00:20:58;6.45;;;5.85;;
64799;SDS011;51233;51.982;4.594;2023-04-21T00:23:59;5.80;;;5.30;;
64799;SDS011;51233;51.982;4.594;2023-04-21T00:26:59;4.97;;;4.53;;
64799;SDS011;51233;51.982;4.594;2023-04-21T00:30:02;4.53;;;4.13;;
64799;SDS011;51233;51.982;4.594;2023-04-21T00:33:03;7.20;;;5.93;;
64799;SDS011;51233;51.982;4.594;2023-04-21T00:36:03;6.77;;;6.17;;
64799;SDS011;51233;51.982;4.594;2023-04-21T00:39:03;6.10;;;5.50;;
64799;SDS011;51233;51.982;4.594;2023-04-21T00:42:25;6.63;;;5.70;;
64799;SDS011;51233;51.982;4.594;2023-04-21T00:45:24;7.72;;;6.65;;
64799;SDS011;51233;51.982;4.594;2023-04-21T00:48:24;8.93;;;6.87;;
64799;SDS011;51233;51.982;4.594;2023-04-21T00:51:25;7.96;;;6.78;;
64799;SDS011;51233;51.982;4.594;2023-04-21T00:54:25;7.23;;;6.40;;
64799;SDS011;51233;51.982;4.594;2023-04-21T00:57:26;7.47;;;6.70;;
64799;SDS011;51233;51.982;4.594;2023-04-21T01:00:27;8.50;;;6.53;;
64799;SDS011;51233;51.982;4.594;2023-04-21T01:03:28;10.97;;;7.30;;
64799;SDS011;51233;51.982;4.594;2023-04-21T01:06:31;8.10;;;7.32;;
64799;SDS011;51233;51.982;4.594;2023-04-21T01:09:32;7.63;;;6.93;;
64799;SDS011;51233;51.982;4.594;2023-04-21T01:12:32;7.55;;;6.70;;
64799;SDS011;51233;51.982;4.594;2023-04-21T01:15:34;7.88;;;6.07;;
64799;SDS011;51233;51.982;4.594;2023-04-21T01:18:37;7.65;;;6.93;;
64799;SDS011;51233;51.982;4.594;2023-04-21T01:21:38;8.68;;;6.93;;
64799;SDS011;51233;51.982;4.594;2023-04-21T01:24:44;6.60;;;6.00;;
64799;SDS011;51233;51.982;4.594;2023-04-21T01:27:47;8.32;;;7.45;;
64799;SDS011;51233;51.982;4.594;2023-04-21T01:30:48;10.25;;;7.43;;
64799;SDS011;51233;51.982;4.594;2023-04-21T01:33:48;7.22;;;6.47;;
64799;SDS011;51233;51.982;4.594;2023-04-21T01:36:48;8.17;;;7.20;;
64799;SDS011;51233;51.982;4.594;2023-04-21T01:39:50;5.57;;;5.03;;
64799;SDS011;51233;51.982;4.594;2023-04-21T01:42:53;6.45;;;5.82;;
64799;SDS011;51233;51.982;4.594;2023-04-21T01:45:53;7.20;;;6.50;;
64799;SDS011;51233;51.982;4.594;2023-04-21T01:48:54;9.30;;;8.02;;
64799;SDS011;51233;51.982;4.594;2023-04-21T01:51:54;8.27;;;7.00;;
64799;SDS011;51233;51.982;4.594;2023-04-21T01:54:54;10.75;;;8.73;;
64799;SDS011;51233;51.982;4.594;2023-04-21T01:57:54;9.23;;;8.23;;
64799;SDS011;51233;51.982;4.594;2023-04-21T02:00:57;8.38;;;7.45;;
64799;SDS011;51233;51.982;4.594;2023-04-21T02:03:57;9.80;;;8.07;;
64799;SDS011;51233;51.982;4.594;2023-04-21T02:06:57;7.50;;;6.70;;
64799;SDS011;51233;51.982;4.594;2023-04-21T02:09:57;11.33;;;8.20;;
64799;SDS011;51233;51.982;4.594;2023-04-21T02:12:57;9.27;;;7.60;;
64799;SDS011;51233;51.982;4.594;2023-04-21T02:15:58;9.63;;;8.50;;
64799;SDS011;51233;51.982;4.594;2023-04-21T02:19:01;6.67;;;5.97;;
64799;SDS011;51233;51.982;4.594;2023-04-21T02:22:02;9.10;;;7.43;;
64799;SDS011;51233;51.982;4.594;2023-04-21T02:25:03;10.03;;;8.80;;
64799;SDS011;51233;51.982;4.594;2023-04-21T02:28:03;11.13;;;8.37;;
64799;SDS011;51233;51.982;4.594;2023-04-21T02:31:04;9.60;;;8.63;;
64799;SDS011;51233;51.982;4.594;2023-04-21T02:34:04;8.00;;;7.10;;
64799;SDS011;51233;51.982;4.594;2023-04-21T02:37:04;8.87;;;7.47;;
64799;SDS011;51233;51.982;4.594;2023-04-21T02:40:05;7.13;;;6.43;;
64799;SDS011;51233;51.982;4.594;2023-04-21T02:43:05;9.50;;;8.30;;
64799;SDS011;51233;51.982;4.594;2023-04-21T02:46:07;8.80;;;7.88;;
64799;SDS011;51233;51.982;4.594;2023-04-21T02:49:07;12.38;;;8.63;;
64799;SDS011;51233;51.982;4.594;2023-04-21T02:52:07;10.03;;;8.07;;
64799;SDS011;51233;51.982;4.594;2023-04-21T02:55:08;10.18;;;8.90;;
64799;SDS011;51233;51.982;4.594;2023-04-21T02:58:08;10.27;;;8.37;;
64799;SDS011;51233;51.982;4.594;2023-04-21T03:01:09;10.95;;;9.00;;
64799;SDS011;51233;51.982;4.594;2023-04-21T03:04:09;11.03;;;9.47;;
64799;SDS011;51233;51.982;4.594;2023-04-21T03:07:12;11.82;;;9.35;;
64799;SDS011;51233;51.982;4.594;2023-04-21T03:10:13;11.23;;;10.10;;
64799;SDS011;51233;51.982;4.594;2023-04-21T03:13:13;12.45;;;10.30;;
64799;SDS011;51233;51.982;4.594;2023-04-21T03:16:13;8.90;;;8.00;;
64799;SDS011;51233;51.982;4.594;2023-04-21T03:19:13;8.73;;;7.57;;
64799;SDS011;51233;51.982;4.594;2023-04-21T03:22:13;10.48;;;8.68;;
64799;SDS011;51233;51.982;4.594;2023-04-21T03:25:23;10.87;;;8.57;;
64799;SDS011;51233;51.982;4.594;2023-04-21T03:28:23;11.13;;;9.40;;
64799;SDS011;51233;51.982;4.594;2023-04-21T03:31:23;9.93;;;7.82;;
64799;SDS011;51233;51.982;4.594;2023-04-21T03:34:23;12.15;;;8.80;;
64799;SDS011;51233;51.982;4.594;2023-04-21T03:37:24;13.23;;;10.87;;
64799;SDS011;51233;51.982;4.594;2023-04-21T03:40:24;11.43;;;9.40;;
64799;SDS011;51233;51.982;4.594;2023-04-21T03:43:24;13.32;;;11.15;;
64799;SDS011;51233;51.982;4.594;2023-04-21T03:46:24;11.55;;;10.02;;
64799;SDS011;51233;51.982;4.594;2023-04-21T03:49:24;13.53;;;10.80;;
64799;SDS011;51233;51.982;4.594;2023-04-21T03:52:25;10.77;;;9.63;;
64799;SDS011;51233;51.982;4.594;2023-04-21T03:55:25;15.27;;;10.70;;
64799;SDS011;51233;51.982;4.594;2023-04-21T03:58:25;11.27;;;10.10;;
64799;SDS011;51233;51.982;4.594;2023-04-21T04:01:25;12.83;;;10.87;;
64799;SDS011;51233;51.982;4.594;2023-04-21T04:04:26;11.30;;;10.15;;
64799;SDS011;51233;51.982;4.594;2023-04-21T04:07:26;13.85;;;11.13;;
64799;SDS011;51233;51.982;4.594;2023-04-21T04:10:26;10.67;;;9.57;;
64799;SDS011;51233;51.982;4.594;2023-04-21T04:13:32;13.45;;;10.13;;
64799;SDS011;51233;51.982;4.594;2023-04-21T04:16:33;12.70;;;11.25;;
64799;SDS011;51233;51.982;4.594;2023-04-21T04:19:33;12.82;;;11.45;;
64799;SDS011;51233;51.982;4.594;2023-04-21T04:22:33;12.70;;;11.38;;
64799;SDS011;51233;51.982;4.594;2023-04-21T04:25:34;13.00;;;10.63;;
64799;SDS011;51233;51.982;4.594;2023-04-21T04:28:34;14.76;;;12.20;;
64799;SDS011;51233;51.982;4.594;2023-04-21T04:31:34;13.97;;;11.97;;
64799;SDS011;51233;51.982;4.594;2023-04-21T04:34:34;10.60;;;9.43;;
64799;SDS011;51233;51.982;4.594;2023-04-21T04:37:36;13.65;;;11.85;;
64799;SDS011;51233;51.982;4.594;2023-04-21T04:40:36;15.75;;;12.65;;
64799;SDS011;51233;51.982;4.594;2023-04-21T04:43:37;14.27;;;12.13;;
64799;SDS011;51233;51.982;4.594;2023-04-21T04:46:38;12.13;;;10.17;;
64799;SDS011;51233;51.982;4.594;2023-04-21T04:49:38;12.10;;;10.80;;
64799;SDS011;51233;51.982;4.594;2023-04-21T04:52:38;11.48;;;9.02;;
64799;SDS011;51233;51.982;4.594;2023-04-21T04:55:41;12.07;;;10.37;;
64799;SDS011;51233;51.982;4.594;2023-04-21T04:58:41;11.23;;;10.02;;
64799;SDS011;51233;51.982;4.594;2023-04-21T05:01:42;14.32;;;12.75;;
64799;SDS011;51233;51.982;4.594;2023-04-21T05:04:42;14.93;;;12.57;;
64799;SDS011;51233;51.982;4.594;2023-04-21T05:07:42;12.68;;;10.48;;
64799;SDS011;51233;51.982;4.594;2023-04-21T05:10:42;11.10;;;9.98;;
64799;SDS011;51233;51.982;4.594;2023-04-21T05:13:42;14.68;;;12.48;;
64799;SDS011;51233;51.982;4.594;2023-04-21T05:16:45;14.73;;;12.23;;
64799;SDS011;51233;51.982;4.594;2023-04-21T05:19:45;13.52;;;11.00;;
64799;SDS011;51233;51.982;4.594;2023-04-21T05:22:46;13.88;;;10.52;;
64799;SDS011;51233;51.982;4.594;2023-04-21T05:25:46;17.33;;;14.13;;
64799;SDS011;51233;51.982;4.594;2023-04-21T05:28:46;15.53;;;13.17;;
64799;SDS011;51233;51.982;4.594;2023-04-21T05:31:48;16.05;;;12.77;;
64799;SDS011;51233;51.982;4.594;2023-04-21T05:34:48;15.43;;;12.98;;
64799;SDS011;51233;51.982;4.594;2023-04-21T05:37:49;15.43;;;12.95;;
64799;SDS011;51233;51.982;4.594;2023-04-21T05:40:56;15.75;;;13.50;;
64799;SDS011;51233;51.982;4.594;2023-04-21T05:43:56;17.85;;;14.75;;
64799;SDS011;51233;51.982;4.594;2023-04-21T05:46:56;14.98;;;13.40;;
64799;SDS011;51233;51.982;4.594;2023-04-21T05:49:56;15.57;;;13.90;;
64799;SDS011;51233;51.982;4.594;2023-04-21T05:52:56;16.30;;;13.20;;
64799;SDS011;51233;51.982;4.594;2023-04-21T05:55:56;16.73;;;14.52;;
64799;SDS011;51233;51.982;4.594;2023-04-21T05:58:57;15.67;;;14.03;;
64799;SDS011;51233;51.982;4.594;2023-04-21T06:01:57;14.07;;;11.80;;
64799;SDS011;51233;51.982;4.594;2023-04-21T06:05:00;15.70;;;14.00;;
64799;SDS011;51233;51.982;4.594;2023-04-21T06:08:00;14.98;;;13.38;;
64799;SDS011;51233;51.982;4.594;2023-04-21T06:11:00;17.23;;;15.52;;
64799;SDS011;51233;51.982;4.594;2023-04-21T06:14:04;16.73;;;14.95;;
64799;SDS011;51233;51.982;4.594;2023-04-21T06:17:04;14.70;;;12.93;;
64799;SDS011;51233;51.982;4.594;2023-04-21T06:20:07;16.67;;;13.55;;
64799;SDS011;51233;51.982;4.594;2023-04-21T06:23:07;15.98;;;14.15;;
64799;SDS011;51233;51.982;4.594;2023-04-21T06:26:08;16.60;;;13.97;;
64799;SDS011;51233;51.982;4.594;2023-04-21T06:29:08;17.40;;;14.03;;
64799;SDS011;51233;51.982;4.594;2023-04-21T06:32:11;17.90;;;13.50;;
64799;SDS011;51233;51.982;4.594;2023-04-21T06:35:11;17.58;;;15.00;;
64799;SDS011;51233;51.982;4.594;2023-04-21T06:38:13;16.13;;;14.43;;
64799;SDS011;51233;51.982;4.594;2023-04-21T06:41:14;18.73;;;14.90;;
64799;SDS011;51233;51.982;4.594;2023-04-21T06:44:14;16.70;;;14.82;;
64799;SDS011;51233;51.982;4.594;2023-04-21T06:47:15;17.15;;;15.27;;
64799;SDS011;51233;51.982;4.594;2023-04-21T06:50:15;18.07;;;15.33;;
64799;SDS011;51233;51.982;4.594;2023-04-21T06:53:16;15.63;;;14.00;;
64799;SDS011;51233;51.982;4.594;2023-04-21T06:56:17;19.17;;;16.93;;
64799;SDS011;51233;51.982;4.594;2023-04-21T06:59:17;17.25;;;14.98;;
64799;SDS011;51233;51.982;4.594;2023-04-21T07:02:17;19.03;;;15.70;;
64799;SDS011;51233;51.982;4.594;2023-04-21T07:05:17;18.27;;;15.65;;
64799;SDS011;51233;51.982;4.594;2023-04-21T07:08:17;20.58;;;18.48;;
64799;SDS011;51233;51.982;4.594;2023-04-21T07:11:17;18.80;;;16.80;;
64799;SDS011;51233;51.982;4.594;2023-04-21T07:14:18;20.87;;;18.43;;
64799;SDS011;51233;51.982;4.594;2023-04-21T07:17:18;23.60;;;21.05;;
64799;SDS011;51233;51.982;4.594;2023-04-21T07:20:18;21.97;;;19.13;;
64799;SDS011;51233;51.982;4.594;2023-04-21T07:23:20;22.95;;;18.08;;
64799;SDS011;51233;51.982;4.594;2023-04-21T07:26:20;20.17;;;18.08;;
64799;SDS011;51233;51.982;4.594;2023-04-21T07:29:20;22.40;;;20.00;;
64799;SDS011;51233;51.982;4.594;2023-04-21T07:32:20;22.13;;;19.53;;
64799;SDS011;51233;51.982;4.594;2023-04-21T07:35:20;21.42;;;18.23;;
64799;SDS011;51233;51.982;4.594;2023-04-21T07:38:21;24.63;;;20.07;;
64799;SDS011;51233;51.982;4.594;2023-04-21T07:41:21;23.30;;;20.55;;
64799;SDS011;51233;51.982;4.594;2023-04-21T07:44:21;21.67;;;19.33;;
64799;SDS011;51233;51.982;4.594;2023-04-21T07:47:21;22.33;;;19.92;;
64799;SDS011;51233;51.982;4.594;2023-04-21T07:50:22;25.98;;;21.00;;
64799;SDS011;51233;51.982;4.594;2023-04-21T07:53:22;23.85;;;21.30;;
64799;SDS011;51233;51.982;4.594;2023-04-21T07:56:25;24.48;;;20.95;;
64799;SDS011;51233;51.982;4.594;2023-04-21T07:59:28;21.27;;;19.00;;
64799;SDS011;51233;51.982;4.594;2023-04-21T08:02:28;23.42;;;21.00;;
64799;SDS011;51233;51.982;4.594;2023-04-21T08:05:28;26.00;;;23.25;;
64799;SDS011;51233;51.982;4.594;2023-04-21T08:08:29;22.23;;;19.83;;
64799;SDS011;51233;51.982;4.594;2023-04-21T08:11:29;25.73;;;23.03;;
64799;SDS011;51233;51.982;4.594;2023-04-21T08:14:29;25.77;;;23.03;;
64799;SDS011;51233;51.982;4.594;2023-04-21T08:17:29;27.33;;;24.52;;
64799;SDS011;51233;51.982;4.594;2023-04-21T08:20:29;28.37;;;25.07;;
64799;SDS011;51233;51.982;4.594;2023-04-21T08:23:30;23.03;;;20.50;;
64799;SDS011;51233;51.982;4.594;2023-04-21T08:26:33;24.43;;;21.83;;
64799;SDS011;51233;51.982;4.594;2023-04-21T08:29:33;24.20;;;19.70;;
64799;SDS011;51233;51.982;4.594;2023-04-21T08:32:36;25.73;;;23.15;;
64799;SDS011;51233;51.982;4.594;2023-04-21T08:35:36;26.92;;;24.23;;
64799;SDS011;51233;51.982;4.594;2023-04-21T08:38:37;24.65;;;21.95;;
64799;SDS011;51233;51.982;4.594;2023-04-21T08:41:37;25.23;;;20.80;;
64799;SDS011;51233;51.982;4.594;2023-04-21T08:44:39;21.83;;;19.60;;
64799;SDS011;51233;51.982;4.594;2023-04-21T08:47:46;24.60;;;20.25;;
64799;SDS011;51233;51.982;4.594;2023-04-21T08:50:48;22.23;;;19.70;;
64799;SDS011;51233;51.982;4.594;2023-04-21T08:53:49;21.65;;;19.40;;
64799;SDS011;51233;51.982;4.594;2023-04-21T08:56:49;17.30;;;15.43;;
64799;SDS011;51233;51.982;4.594;2023-04-21T08:59:50;16.00;;;14.30;;
64799;SDS011;51233;51.982;4.594;2023-04-21T09:02:53;20.73;;;18.45;;
64799;SDS011;51233;51.982;4.594;2023-04-21T09:05:59;18.98;;;16.98;;
64799;SDS011;51233;51.982;4.594;2023-04-21T09:08:59;22.08;;;18.60;;
64799;SDS011;51233;51.982;4.594;2023-04-21T09:12:01;18.35;;;15.85;;
64799;SDS011;51233;51.982;4.594;2023-04-21T09:15:04;19.27;;;17.27;;
64799;SDS011;51233;51.982;4.594;2023-04-21T09:18:09;17.55;;;15.73;;
64799;SDS011;51233;51.982;4.594;2023-04-21T09:21:10;19.10;;;17.02;;
64799;SDS011;51233;51.982;4.594;2023-04-21T09:24:14;23.25;;;20.88;;
64799;SDS011;51233;51.982;4.594;2023-04-21T09:27:15;16.80;;;14.97;;
64799;SDS011;51233;51.982;4.594;2023-04-21T09:30:18;17.92;;;15.70;;
64799;SDS011;51233;51.982;4.594;2023-04-21T09:33:19;15.85;;;14.25;;
64799;SDS011;51233;51.982;4.594;2023-04-21T09:36:20;16.40;;;14.60;;
64799;SDS011;51233;51.982;4.594;2023-04-21T09:39:21;16.98;;;15.38;;
64799;SDS011;51233;51.982;4.594;2023-04-21T09:42:27;16.63;;;15.02;;
64799;SDS011;51233;51.982;4.594;2023-04-21T09:45:28;17.52;;;14.80;;
64799;SDS011;51233;51.982;4.594;2023-04-21T09:48:32;11.95;;;10.75;;
64799;SDS011;51233;51.982;4.594;2023-04-21T09:51:33;14.32;;;12.82;;
64799;SDS011;51233;51.982;4.594;2023-04-21T09:54:34;13.50;;;12.20;;
64799;SDS011;51233;51.982;4.594;2023-04-21T09:57:37;15.20;;;13.75;;
64799;SDS011;51233;51.982;4.594;2023-04-21T10:00:37;15.70;;;13.60;;
64799;SDS011;51233;51.982;4.594;2023-04-21T10:03:38;16.92;;;14.85;;
64799;SDS011;51233;51.982;4.594;2023-04-21T10:06:41;17.83;;;16.08;;
64799;SDS011;51233;51.982;4.594;2023-04-21T10:09:44;16.63;;;14.93;;
64799;SDS011;51233;51.982;4.594;2023-04-21T10:12:45;15.82;;;14.30;;
64799;SDS011;51233;51.982;4.594;2023-04-21T10:15:45;16.23;;;14.57;;
64799;SDS011;51233;51.982;4.594;2023-04-21T10:18:45;15.05;;;13.52;;
64799;SDS011;51233;51.982;4.594;2023-04-21T10:21:45;13.90;;;12.67;;
64799;SDS011;51233;51.982;4.594;2023-04-21T10:24:48;13.70;;;12.40;;
64799;SDS011;51233;51.982;4.594;2023-04-21T10:27:48;13.70;;;12.20;;
64799;SDS011;51233;51.982;4.594;2023-04-21T10:30:48;13.83;;;12.53;;
64799;SDS011;51233;51.982;4.594;2023-04-21T10:40:01;13.43;;;12.13;;
64799;SDS011;51233;51.982;4.594;2023-04-21T10:43:14;13.88;;;12.50;;
64799;SDS011;51233;51.982;4.594;2023-04-21T10:46:35;13.15;;;11.80;;
64799;SDS011;51233;51.982;4.594;2023-04-21T10:49:38;11.18;;;10.07;;
64799;SDS011;51233;51.982;4.594;2023-04-21T10:52:42;13.70;;;11.73;;
64799;SDS011;51233;51.982;4.594;2023-04-21T10:55:43;13.65;;;12.30;;
64799;SDS011;51233;51.982;4.594;2023-04-21T10:58:48;13.23;;;11.95;;
64799;SDS011;51233;51.982;4.594;2023-04-21T11:01:48;12.57;;;11.33;;
64799;SDS011;51233;51.982;4.594;2023-04-21T11:04:52;13.13;;;11.93;;
64799;SDS011;51233;51.982;4.594;2023-04-21T11:08:00;13.85;;;12.32;;
64799;SDS011;51233;51.982;4.594;2023-04-21T11:11:00;12.80;;;11.50;;
64799;SDS011;51233;51.982;4.594;2023-04-21T11:14:01;12.60;;;11.32;;
64799;SDS011;51233;51.982;4.594;2023-04-21T11:17:02;11.87;;;10.47;;
64799;SDS011;51233;51.982;4.594;2023-04-21T11:20:03;10.23;;;9.27;;
64799;SDS011;51233;51.982;4.594;2023-04-21T11:23:03;11.00;;;9.93;;
64799;SDS011;51233;51.982;4.594;2023-04-21T11:26:03;11.00;;;9.98;;
64799;SDS011;51233;51.982;4.594;2023-04-21T11:29:04;14.07;;;12.33;;
64799;SDS011;51233;51.982;4.594;2023-04-21T11:32:07;10.55;;;9.55;;
64799;SDS011;51233;51.982;4.594;2023-04-21T11:35:08;12.23;;;11.10;;
64799;SDS011;51233;51.982;4.594;2023-04-21T11:38:08;10.33;;;9.43;;
64799;SDS011;51233;51.982;4.594;2023-04-21T11:41:09;13.73;;;11.60;;
64799;SDS011;51233;51.982;4.594;2023-04-21T11:44:10;13.33;;;12.07;;
64799;SDS011;51233;51.982;4.594;2023-04-21T11:47:14;9.20;;;8.40;;
64799;SDS011;51233;51.982;4.594;2023-04-21T11:50:28;13.07;;;11.77;;
64799;SDS011;51233;51.982;4.594;2023-04-21T11:53:30;12.27;;;11.13;;
64799;SDS011;51233;51.982;4.594;2023-04-21T11:56:41;14.18;;;11.63;;
64799;SDS011;51233;51.982;4.594;2023-04-21T11:59:41;13.57;;;11.23;;
64799;SDS011;51233;51.982;4.594;2023-04-21T12:02:44;13.27;;;11.95;;
64799;SDS011;51233;51.982;4.594;2023-04-21T12:05:54;12.82;;;11.52;;
64799;SDS011;51233;51.982;4.594;2023-04-21T12:08:55;5.47;;;4.97;;
64799;SDS011;51233;51.982;4.594;2023-04-21T12:11:57;5.38;;;4.95;;
64799;SDS011;51233;51.982;4.594;2023-04-21T12:14:57;10.00;;;9.15;;
64799;SDS011;51233;51.982;4.594;2023-04-21T12:18:00;12.77;;;11.48;;
64799;SDS011;51233;51.982;4.594;2023-04-21T12:21:03;12.80;;;11.48;;
64799;SDS011;51233;51.982;4.594;2023-04-21T12:24:04;11.68;;;10.57;;
64799;SDS011;51233;51.982;4.594;2023-04-21T12:27:04;8.53;;;7.80;;
64799;SDS011;51233;51.982;4.594;2023-04-21T12:30:05;11.50;;;10.40;;
64799;SDS011;51233;51.982;4.594;2023-04-21T12:33:07;8.13;;;7.20;;
64799;SDS011;51233;51.982;4.594;2023-04-21T12:36:07;9.40;;;7.55;;
64799;SDS011;51233;51.982;4.594;2023-04-21T12:39:07;9.60;;;8.70;;
64799;SDS011;51233;51.982;4.594;2023-04-21T12:42:08;11.45;;;8.73;;
64799;SDS011;51233;51.982;4.594;2023-04-21T12:45:09;5.78;;;5.28;;
64799;SDS011;51233;51.982;4.594;2023-04-21T12:48:09;11.13;;;10.03;;
64799;SDS011;51233;51.982;4.594;2023-04-21T12:51:09;11.43;;;10.23;;
64799;SDS011;51233;51.982;4.594;2023-04-21T12:54:12;9.17;;;8.30;;
64799;SDS011;51233;51.982;4.594;2023-04-21T12:57:13;7.07;;;6.47;;
64799;SDS011;51233;51.982;4.594;2023-04-21T13:00:14;8.80;;;7.43;;
64799;SDS011;51233;51.982;4.594;2023-04-21T13:03:14;7.87;;;7.23;;
64799;SDS011;51233;51.982;4.594;2023-04-21T13:06:17;8.23;;;7.53;;
64799;SDS011;51233;51.982;4.594;2023-04-21T13:09:18;8.23;;;7.45;;
64799;SDS011;51233;51.982;4.594;2023-04-21T13:12:18;10.45;;;9.40;;
64799;SDS011;51233;51.982;4.594;2023-04-21T13:15:18;11.05;;;10.05;;
64799;SDS011;51233;51.982;4.594;2023-04-21T13:18:18;9.53;;;8.57;;
64799;SDS011;51233;51.982;4.594;2023-04-21T13:21:19;7.93;;;7.13;;
64799;SDS011;51233;51.982;4.594;2023-04-21T13:24:19;9.03;;;8.20;;
64799;SDS011;51233;51.982;4.594;2023-04-21T13:27:19;9.03;;;7.97;;
64799;SDS011;51233;51.982;4.594;2023-04-21T13:30:20;9.53;;;8.43;;
64799;SDS011;51233;51.982;4.594;2023-04-21T13:33:20;10.00;;;9.00;;
64799;SDS011;51233;51.982;4.594;2023-04-21T13:36:20;11.27;;;9.80;;
64799;SDS011;51233;51.982;4.594;2023-04-21T13:39:21;10.40;;;9.40;;
64799;SDS011;51233;51.982;4.594;2023-04-21T13:42:21;11.90;;;10.67;;
64799;SDS011;51233;51.982;4.594;2023-04-21T13:45:21;10.30;;;9.30;;
64799;SDS011;51233;51.982;4.594;2023-04-21T13:48:24;10.80;;;9.80;;
64799;SDS011;51233;51.982;4.594;2023-04-21T13:51:25;11.13;;;10.02;;
64799;SDS011;51233;51.982;4.594;2023-04-21T13:54:25;12.60;;;11.30;;
64799;SDS011;51233;51.982;4.594;2023-04-21T13:57:25;12.00;;;9.32;;
64799;SDS011;51233;51.982;4.594;2023-04-21T14:00:26;12.37;;;11.23;;
64799;SDS011;51233;51.982;4.594;2023-04-21T14:03:26;11.97;;;10.67;;
64799;SDS011;51233;51.982;4.594;2023-04-21T14:06:26;13.63;;;9.97;;
64799;SDS011;51233;51.982;4.594;2023-04-21T14:09:27;12.40;;;11.20;;
64799;SDS011;51233;51.982;4.594;2023-04-21T14:12:27;10.80;;;9.67;;
64799;SDS011;51233;51.982;4.594;2023-04-21T14:15:27;13.37;;;11.00;;
64799;SDS011;51233;51.982;4.594;2023-04-21T14:18:27;13.25;;;11.95;;
64799;SDS011;51233;51.982;4.594;2023-04-21T14:21:28;14.37;;;12.47;;
64799;SDS011;51233;51.982;4.594;2023-04-21T14:24:28;9.23;;;7.88;;
64799;SDS011;51233;51.982;4.594;2023-04-21T14:27:31;11.23;;;10.13;;
64799;SDS011;51233;51.982;4.594;2023-04-21T14:30:32;11.70;;;10.50;;
64799;SDS011;51233;51.982;4.594;2023-04-21T14:33:32;13.33;;;11.73;;
64799;SDS011;51233;51.982;4.594;2023-04-21T14:36:35;12.13;;;10.93;;
64799;SDS011;51233;51.982;4.594;2023-04-21T14:39:35;15.45;;;11.45;;
64799;SDS011;51233;51.982;4.594;2023-04-21T14:42:39;15.65;;;11.48;;
64799;SDS011;51233;51.982;4.594;2023-04-21T14:45:40;12.27;;;10.98;;
64799;SDS011;51233;51.982;4.594;2023-04-21T14:48:41;12.50;;;11.20;;
64799;SDS011;51233;51.982;4.594;2023-04-21T14:51:42;14.67;;;12.63;;
64799;SDS011;51233;51.982;4.594;2023-04-21T14:54:45;15.10;;;12.10;;
64799;SDS011;51233;51.982;4.594;2023-04-21T14:57:45;15.30;;;13.80;;
64799;SDS011;51233;51.982;4.594;2023-04-21T15:00:45;12.00;;;10.03;;
64799;SDS011;51233;51.982;4.594;2023-04-21T15:03:46;13.47;;;11.97;;
64799;SDS011;51233;51.982;4.594;2023-04-21T15:06:46;12.83;;;11.37;;
64799;SDS011;51233;51.982;4.594;2023-04-21T15:09:46;14.57;;;13.17;;
64799;SDS011;51233;51.982;4.594;2023-04-21T15:12:47;14.82;;;13.30;;
64799;SDS011;51233;51.982;4.594;2023-04-21T15:15:47;15.15;;;13.40;;
64799;SDS011;51233;51.982;4.594;2023-04-21T15:18:51;13.45;;;10.70;;
64799;SDS011;51233;51.982;4.594;2023-04-21T15:21:51;14.27;;;12.82;;
64799;SDS011;51233;51.982;4.594;2023-04-21T15:24:51;17.40;;;15.50;;
64799;SDS011;51233;51.982;4.594;2023-04-21T15:27:51;17.27;;;14.18;;
64799;SDS011;51233;51.982;4.594;2023-04-21T15:30:51;13.60;;;12.17;;
64799;SDS011;51233;51.982;4.594;2023-04-21T15:33:52;16.47;;;14.87;;
64799;SDS011;51233;51.982;4.594;2023-04-21T15:36:52;16.00;;;13.80;;
64799;SDS011;51233;51.982;4.594;2023-04-21T15:40:02;14.73;;;13.02;;
64799;SDS011;51233;51.982;4.594;2023-04-21T15:43:03;12.55;;;10.65;;
64799;SDS011;51233;51.982;4.594;2023-04-21T15:46:04;8.23;;;7.37;;
64799;SDS011;51233;51.982;4.594;2023-04-21T15:49:23;14.23;;;12.73;;
64799;SDS011;51233;51.982;4.594;2023-04-21T15:52:24;14.18;;;12.82;;
64799;SDS011;51233;51.982;4.594;2023-04-21T15:55:24;15.77;;;13.73;;
64799;SDS011;51233;51.982;4.594;2023-04-21T15:58:26;17.13;;;11.98;;
64799;SDS011;51233;51.982;4.594;2023-04-21T16:01:26;18.42;;;15.35;;
64799;SDS011;51233;51.982;4.594;2023-04-21T16:04:27;15.90;;;13.20;;
64799;SDS011;51233;51.982;4.594;2023-04-21T16:07:27;17.33;;;14.13;;
64799;SDS011;51233;51.982;4.594;2023-04-21T16:10:30;17.17;;;14.33;;
64799;SDS011;51233;51.982;4.594;2023-04-21T16:13:31;14.80;;;13.23;;
64799;SDS011;51233;51.982;4.594;2023-04-21T16:16:31;17.33;;;14.90;;
64799;SDS011;51233;51.982;4.594;2023-04-21T16:19:31;14.30;;;12.80;;
64799;SDS011;51233;51.982;4.594;2023-04-21T16:22:33;19.90;;;16.17;;
64799;SDS011;51233;51.982;4.594;2023-04-21T16:25:33;16.63;;;14.93;;
64799;SDS011;51233;51.982;4.594;2023-04-21T16:28:33;16.23;;;14.57;;
64799;SDS011;51233;51.982;4.594;2023-04-21T16:31:34;15.23;;;13.67;;
64799;SDS011;51233;51.982;4.594;2023-04-21T16:34:34;18.53;;;14.70;;
64799;SDS011;51233;51.982;4.594;2023-04-21T16:37:34;17.30;;;14.27;;
64799;SDS011;51233;51.982;4.594;2023-04-21T16:43:36;16.73;;;13.50;;
64799;SDS011;51233;51.982;4.594;2023-04-21T16:46:36;20.87;;;15.10;;
64799;SDS011;51233;51.982;4.594;2023-04-21T16:49:36;18.00;;;14.17;;
64799;SDS011;51233;51.982;4.594;2023-04-21T16:52:37;15.13;;;12.27;;
64799;SDS011;51233;51.982;4.594;2023-04-21T16:55:37;15.88;;;13.68;;
64799;SDS011;51233;51.982;4.594;2023-04-21T16:58:37;15.33;;;13.30;;
64799;SDS011;51233;51.982;4.594;2023-04-21T17:01:38;19.47;;;15.43;;
64799;SDS011;51233;51.982;4.594;2023-04-21T17:04:38;15.30;;;13.73;;
64799;SDS011;51233;51.982;4.594;2023-04-21T17:07:38;16.90;;;14.50;;
64799;SDS011;51233;51.982;4.594;2023-04-21T17:10:38;16.95;;;14.68;;
64799;SDS011;51233;51.982;4.594;2023-04-21T17:13:39;18.45;;;15.30;;
64799;SDS011;51233;51.982;4.594;2023-04-21T17:16:39;16.80;;;14.53;;
64799;SDS011;51233;51.982;4.594;2023-04-21T17:19:39;17.53;;;15.60;;
64799;SDS011;51233;51.982;4.594;2023-04-21T17:22:40;16.03;;;14.13;;
64799;SDS011;51233;51.982;4.594;2023-04-21T17:25:40;16.27;;;14.67;;
64799;SDS011;51233;51.982;4.594;2023-04-21T17:28:40;16.08;;;14.43;;
64799;SDS011;51233;51.982;4.594;2023-04-21T17:31:40;19.23;;;15.00;;
64799;SDS011;51233;51.982;4.594;2023-04-21T17:34:47;18.27;;;14.50;;
64799;SDS011;51233;51.982;4.594;2023-04-21T17:37:47;17.70;;;15.80;;
64799;SDS011;51233;51.982;4.594;2023-04-21T17:40:48;16.63;;;13.50;;
64799;SDS011;51233;51.982;4.594;2023-04-21T17:43:48;16.20;;;13.18;;
64799;SDS011;51233;51.982;4.594;2023-04-21T17:46:48;16.35;;;12.85;;
64799;SDS011;51233;51.982;4.594;2023-04-21T17:49:53;14.75;;;12.40;;
64799;SDS011;51233;51.982;4.594;2023-04-21T17:52:53;13.93;;;12.27;;
64799;SDS011;51233;51.982;4.594;2023-04-21T17:55:53;13.20;;;11.80;;
64799;SDS011;51233;51.982;4.594;2023-04-21T17:58:53;13.67;;;11.33;;